sensor_id;sensor_type;location;lat;lon;timestamp;pressure;altitude;pressure_sealevel;temperature;humidity
63694;BME280;49839;51.798;10.954;2022-10-16T00:01:29;98720.25;;;15.85;nan
63694;BME280;49839;51.798;10.954;2022-10-16T00:03:59;98722.75;;;15.86;nan
63694;BME280;49839;51.798;10.954;2022-10-16T00:06:29;98718.53;;;15.84;nan
63694;BME280;49839;51.798;10.954;2022-10-16T00:08:59;98719.50;;;15.83;nan
63694;BME280;49839;51.798;10.954;2022-10-16T00:11:30;98721.44;;;15.81;nan
63694;BME280;49839;51.798;10.954;2022-10-16T00:14:02;98717.47;;;15.75;nan
63694;BME280;49839;51.798;10.954;2022-10-16T00:16:34;98708.19;;;15.69;nan
63694;BME280;49839;51.798;10.954;2022-10-16T00:19:03;98710.38;;;15.64;nan
63694;BME280;49839;51.798;10.954;2022-10-16T00:21:31;98712.94;;;15.55;nan
63694;BME280;49839;51.798;10.954;2022-10-16T00:24:02;98721.13;;;15.52;nan
63694;BME280;49839;51.798;10.954;2022-10-16T00:26:33;98710.91;;;15.47;nan
63694;BME280;49839;51.798;10.954;2022-10-16T00:29:02;98717.41;;;15.43;nan
63694;BME280;49839;51.798;10.954;2022-10-16T00:31:33;98717.78;;;15.38;nan
63694;BME280;49839;51.798;10.954;2022-10-16T00:34:02;98720.00;;;15.33;nan
63694;BME280;49839;51.798;10.954;2022-10-16T00:36:30;98716.97;;;15.27;nan
63694;BME280;49839;51.798;10.954;2022-10-16T00:38:59;98711.19;;;15.22;nan
63694;BME280;49839;51.798;10.954;2022-10-16T00:41:28;98721.31;;;15.16;nan
63694;BME280;49839;51.798;10.954;2022-10-16T00:43:58;98724.34;;;15.12;nan
63694;BME280;49839;51.798;10.954;2022-10-16T00:46:29;98730.03;;;15.07;nan
63694;BME280;49839;51.798;10.954;2022-10-16T00:49:03;98740.03;;;15.04;nan
63694;BME280;49839;51.798;10.954;2022-10-16T00:51:34;98732.81;;;14.95;nan
63694;BME280;49839;51.798;10.954;2022-10-16T00:54:06;98730.63;;;14.88;nan
63694;BME280;49839;51.798;10.954;2022-10-16T00:56:36;98742.56;;;14.83;nan
63694;BME280;49839;51.798;10.954;2022-10-16T00:59:07;98751.84;;;14.77;nan
63694;BME280;49839;51.798;10.954;2022-10-16T01:01:39;98761.97;;;14.72;nan
63694;BME280;49839;51.798;10.954;2022-10-16T01:04:09;98757.50;;;14.73;nan
63694;BME280;49839;51.798;10.954;2022-10-16T01:06:42;98755.81;;;14.72;nan
63694;BME280;49839;51.798;10.954;2022-10-16T01:09:15;98752.53;;;14.68;nan
63694;BME280;49839;51.798;10.954;2022-10-16T01:11:57;98748.47;;;14.64;nan
63694;BME280;49839;51.798;10.954;2022-10-16T01:14:37;98743.75;;;14.56;nan
63694;BME280;49839;51.798;10.954;2022-10-16T01:17:11;98762.66;;;14.52;nan
63694;BME280;49839;51.798;10.954;2022-10-16T01:20:08;98762.03;;;14.48;nan
63694;BME280;49839;51.798;10.954;2022-10-16T01:22:45;98762.25;;;14.45;nan
63694;BME280;49839;51.798;10.954;2022-10-16T01:25:22;98772.84;;;14.45;nan
63694;BME280;49839;51.798;10.954;2022-10-16T01:27:54;98760.56;;;14.44;nan
63694;BME280;49839;51.798;10.954;2022-10-16T01:30:26;98750.72;;;14.46;nan
63694;BME280;49839;51.798;10.954;2022-10-16T01:32:58;98751.44;;;14.48;nan
63694;BME280;49839;51.798;10.954;2022-10-16T01:35:31;98736.13;;;14.52;nan
63694;BME280;49839;51.798;10.954;2022-10-16T01:38:03;98733.94;;;14.46;nan
63694;BME280;49839;51.798;10.954;2022-10-16T01:40:34;98741.38;;;14.41;nan
63694;BME280;49839;51.798;10.954;2022-10-16T01:43:10;98746.94;;;14.38;nan
63694;BME280;49839;51.798;10.954;2022-10-16T01:45:40;98755.22;;;14.33;nan
63694;BME280;49839;51.798;10.954;2022-10-16T01:48:09;98760.78;;;14.30;nan
63694;BME280;49839;51.798;10.954;2022-10-16T01:50:41;98760.16;;;14.26;nan
63694;BME280;49839;51.798;10.954;2022-10-16T01:53:13;98751.47;;;14.24;nan
63694;BME280;49839;51.798;10.954;2022-10-16T01:55:45;98761.09;;;14.25;nan
63694;BME280;49839;51.798;10.954;2022-10-16T01:58:17;98759.50;;;14.23;nan
63694;BME280;49839;51.798;10.954;2022-10-16T02:00:47;98766.88;;;14.19;nan
63694;BME280;49839;51.798;10.954;2022-10-16T02:03:17;98768.81;;;14.17;nan
63694;BME280;49839;51.798;10.954;2022-10-16T02:05:50;98775.03;;;14.16;nan
63694;BME280;49839;51.798;10.954;2022-10-16T02:08:20;98765.28;;;14.17;nan
63694;BME280;49839;51.798;10.954;2022-10-16T02:10:50;98777.22;;;14.11;nan
63694;BME280;49839;51.798;10.954;2022-10-16T02:13:23;98772.63;;;14.13;nan
63694;BME280;49839;51.798;10.954;2022-10-16T02:15:54;98770.50;;;14.18;nan
63694;BME280;49839;51.798;10.954;2022-10-16T02:18:22;98775.19;;;14.26;nan
63694;BME280;49839;51.798;10.954;2022-10-16T02:20:59;98784.63;;;14.30;nan
63694;BME280;49839;51.798;10.954;2022-10-16T02:23:34;98788.00;;;14.32;nan
63694;BME280;49839;51.798;10.954;2022-10-16T02:26:07;98800.28;;;14.33;nan
63694;BME280;49839;51.798;10.954;2022-10-16T02:28:43;98798.47;;;14.33;nan
63694;BME280;49839;51.798;10.954;2022-10-16T02:31:16;98795.81;;;14.33;nan
63694;BME280;49839;51.798;10.954;2022-10-16T02:33:46;98800.53;;;14.30;nan
63694;BME280;49839;51.798;10.954;2022-10-16T02:36:14;98799.78;;;14.28;nan
63694;BME280;49839;51.798;10.954;2022-10-16T02:38:43;98794.47;;;14.28;nan
63694;BME280;49839;51.798;10.954;2022-10-16T02:41:13;98794.47;;;14.28;nan
63694;BME280;49839;51.798;10.954;2022-10-16T02:43:42;98786.53;;;14.28;nan
63694;BME280;49839;51.798;10.954;2022-10-16T02:46:11;98793.63;;;14.27;nan
63694;BME280;49839;51.798;10.954;2022-10-16T02:48:39;98791.22;;;14.24;nan
63694;BME280;49839;51.798;10.954;2022-10-16T02:51:08;98782.66;;;14.21;nan
63694;BME280;49839;51.798;10.954;2022-10-16T02:53:36;98796.88;;;14.20;nan
63694;BME280;49839;51.798;10.954;2022-10-16T02:56:05;98789.88;;;14.19;nan
63694;BME280;49839;51.798;10.954;2022-10-16T02:58:35;98803.97;;;14.19;nan
63694;BME280;49839;51.798;10.954;2022-10-16T03:01:05;98802.03;;;14.21;nan
63694;BME280;49839;51.798;10.954;2022-10-16T03:03:33;98799.50;;;14.20;nan
63694;BME280;49839;51.798;10.954;2022-10-16T03:06:02;98799.63;;;14.18;nan
63694;BME280;49839;51.798;10.954;2022-10-16T03:08:30;98803.34;;;14.16;nan
63694;BME280;49839;51.798;10.954;2022-10-16T03:10:58;98791.78;;;14.17;nan
63694;BME280;49839;51.798;10.954;2022-10-16T03:13:26;98798.16;;;14.14;nan
63694;BME280;49839;51.798;10.954;2022-10-16T03:15:55;98796.34;;;14.15;nan
63694;BME280;49839;51.798;10.954;2022-10-16T03:18:25;98802.50;;;14.15;nan
63694;BME280;49839;51.798;10.954;2022-10-16T03:20:54;98787.56;;;14.14;nan
63694;BME280;49839;51.798;10.954;2022-10-16T03:23:22;98792.88;;;14.14;nan
63694;BME280;49839;51.798;10.954;2022-10-16T03:25:53;98799.00;;;14.15;nan
63694;BME280;49839;51.798;10.954;2022-10-16T03:28:22;98805.16;;;14.15;nan
63694;BME280;49839;51.798;10.954;2022-10-16T03:30:50;98806.00;;;14.16;nan
63694;BME280;49839;51.798;10.954;2022-10-16T03:33:18;98804.31;;;14.15;nan
63694;BME280;49839;51.798;10.954;2022-10-16T03:35:53;98803.47;;;14.14;nan
63694;BME280;49839;51.798;10.954;2022-10-16T03:38:21;98802.63;;;14.14;nan
63694;BME280;49839;51.798;10.954;2022-10-16T03:40:50;98803.47;;;14.14;nan
63694;BME280;49839;51.798;10.954;2022-10-16T03:43:18;98792.66;;;14.17;nan
63694;BME280;49839;51.798;10.954;2022-10-16T03:45:46;98794.09;;;14.21;nan
63694;BME280;49839;51.798;10.954;2022-10-16T03:48:15;98795.69;;;14.24;nan
63694;BME280;49839;51.798;10.954;2022-10-16T03:50:44;98792.78;;;14.27;nan
63694;BME280;49839;51.798;10.954;2022-10-16T03:53:17;98787.28;;;14.30;nan
63694;BME280;49839;51.798;10.954;2022-10-16T03:55:45;98798.47;;;14.33;nan
63694;BME280;49839;51.798;10.954;2022-10-16T03:58:14;98812.44;;;14.35;nan
63694;BME280;49839;51.798;10.954;2022-10-16T04:00:43;98816.81;;;14.36;nan
63694;BME280;49839;51.798;10.954;2022-10-16T04:03:12;98824.53;;;14.40;nan
63694;BME280;49839;51.798;10.954;2022-10-16T04:05:41;98810.31;;;14.41;nan
63694;BME280;49839;51.798;10.954;2022-10-16T04:08:09;98809.97;;;14.45;nan
63694;BME280;49839;51.798;10.954;2022-10-16T04:10:39;98816.97;;;14.46;nan
63694;BME280;49839;51.798;10.954;2022-10-16T04:13:07;98823.97;;;14.47;nan
63694;BME280;49839;51.798;10.954;2022-10-16T04:15:35;98827.47;;;14.48;nan
63694;BME280;49839;51.798;10.954;2022-10-16T04:18:03;98826.63;;;14.47;nan
63694;BME280;49839;51.798;10.954;2022-10-16T04:20:31;98827.81;;;14.43;nan
63694;BME280;49839;51.798;10.954;2022-10-16T04:22:59;98834.41;;;14.38;nan
63694;BME280;49839;51.798;10.954;2022-10-16T04:25:28;98818.13;;;14.31;nan
63694;BME280;49839;51.798;10.954;2022-10-16T04:27:58;98828.78;;;14.18;nan
63694;BME280;49839;51.798;10.954;2022-10-16T04:30:26;98842.38;;;14.14;nan
63694;BME280;49839;51.798;10.954;2022-10-16T04:32:55;98834.97;;;14.06;nan
63694;BME280;49839;51.798;10.954;2022-10-16T04:35:27;98843.97;;;14.03;nan
63694;BME280;49839;51.798;10.954;2022-10-16T04:37:57;98854.94;;;13.99;nan
63694;BME280;49839;51.798;10.954;2022-10-16T04:40:25;98853.34;;;13.96;nan
63694;BME280;49839;51.798;10.954;2022-10-16T04:42:53;98842.75;;;13.96;nan
63694;BME280;49839;51.798;10.954;2022-10-16T04:45:23;98822.84;;;13.91;nan
63694;BME280;49839;51.798;10.954;2022-10-16T04:47:51;98822.22;;;13.87;nan
63694;BME280;49839;51.798;10.954;2022-10-16T04:50:19;98824.38;;;13.82;nan
63694;BME280;49839;51.798;10.954;2022-10-16T04:52:48;98827.34;;;13.77;nan
63694;BME280;49839;51.798;10.954;2022-10-16T04:55:16;98829.50;;;13.72;nan
63694;BME280;49839;51.798;10.954;2022-10-16T04:57:44;98837.03;;;13.66;nan
63694;BME280;49839;51.798;10.954;2022-10-16T05:00:13;98856.94;;;13.59;nan
63694;BME280;49839;51.798;10.954;2022-10-16T05:02:43;98841.06;;;13.59;nan
63694;BME280;49839;51.798;10.954;2022-10-16T05:05:11;98834.06;;;13.58;nan
63694;BME280;49839;51.798;10.954;2022-10-16T05:07:39;98834.41;;;13.53;nan
63694;BME280;49839;51.798;10.954;2022-10-16T05:10:07;98835.47;;;13.50;nan
63694;BME280;49839;51.798;10.954;2022-10-16T05:12:35;98836.53;;;13.48;nan
63694;BME280;49839;51.798;10.954;2022-10-16T05:15:04;98834.00;;;13.46;nan
63694;BME280;49839;51.798;10.954;2022-10-16T05:17:32;98846.69;;;13.54;nan
63694;BME280;49839;51.798;10.954;2022-10-16T05:20:02;98857.72;;;13.48;nan
63694;BME280;49839;51.798;10.954;2022-10-16T05:22:30;98865.25;;;13.41;nan
63694;BME280;49839;51.798;10.954;2022-10-16T05:24:58;98857.50;;;13.38;nan
63694;BME280;49839;51.798;10.954;2022-10-16T05:27:27;98859.44;;;13.36;nan
63694;BME280;49839;51.798;10.954;2022-10-16T05:29:55;98870.00;;;13.36;nan
63694;BME280;49839;51.798;10.954;2022-10-16T05:32:23;98866.63;;;13.34;nan
63694;BME280;49839;51.798;10.954;2022-10-16T05:34:52;98866.28;;;13.39;nan
63694;BME280;49839;51.798;10.954;2022-10-16T05:37:21;98865.13;;;13.43;nan
63694;BME280;49839;51.798;10.954;2022-10-16T05:39:50;98867.53;;;13.46;nan
63694;BME280;49839;51.798;10.954;2022-10-16T05:42:19;98868.06;;;13.51;nan
63694;BME280;49839;51.798;10.954;2022-10-16T05:44:47;98851.75;;;13.57;nan
63694;BME280;49839;51.798;10.954;2022-10-16T05:47:15;98844.47;;;13.61;nan
63694;BME280;49839;51.798;10.954;2022-10-16T05:49:44;98840.53;;;13.66;nan
63694;BME280;49839;51.798;10.954;2022-10-16T05:52:12;98849.84;;;13.72;nan
63694;BME280;49839;51.798;10.954;2022-10-16T05:54:41;98848.03;;;13.72;nan
63694;BME280;49839;51.798;10.954;2022-10-16T05:57:10;98849.59;;;13.75;nan
63694;BME280;49839;51.798;10.954;2022-10-16T05:59:38;98841.09;;;13.82;nan
63694;BME280;49839;51.798;10.954;2022-10-16T06:02:07;98849.44;;;13.89;nan
63694;BME280;49839;51.798;10.954;2022-10-16T06:04:36;98856.94;;;13.95;nan
63694;BME280;49839;51.798;10.954;2022-10-16T06:07:04;98875.78;;;14.03;nan
63694;BME280;49839;51.798;10.954;2022-10-16T06:09:32;98893.38;;;14.04;nan
63694;BME280;49839;51.798;10.954;2022-10-16T06:12:02;98899.09;;;14.11;nan
63694;BME280;49839;51.798;10.954;2022-10-16T06:14:31;98899.25;;;14.21;nan
63694;BME280;49839;51.798;10.954;2022-10-16T06:16:59;98899.44;;;14.30;nan
63694;BME280;49839;51.798;10.954;2022-10-16T06:19:27;98899.84;;;14.37;nan
63694;BME280;49839;51.798;10.954;2022-10-16T06:21:55;98893.94;;;14.45;nan
63694;BME280;49839;51.798;10.954;2022-10-16T06:24:25;98896.19;;;14.51;nan
63694;BME280;49839;51.798;10.954;2022-10-16T06:26:53;98901.25;;;14.54;nan
63694;BME280;49839;51.798;10.954;2022-10-16T06:29:22;98899.09;;;14.59;nan
63694;BME280;49839;51.798;10.954;2022-10-16T06:31:50;98907.56;;;14.64;nan
63694;BME280;49839;51.798;10.954;2022-10-16T06:34:19;98919.75;;;14.67;nan
63694;BME280;49839;51.798;10.954;2022-10-16T06:36:48;98920.25;;;14.72;nan
63694;BME280;49839;51.798;10.954;2022-10-16T06:39:16;98925.56;;;14.72;nan
63694;BME280;49839;51.798;10.954;2022-10-16T06:41:47;98930.63;;;14.75;nan
63694;BME280;49839;51.798;10.954;2022-10-16T06:44:16;98943.41;;;14.81;nan
63694;BME280;49839;51.798;10.954;2022-10-16T06:46:45;98952.72;;;14.86;nan
63694;BME280;49839;51.798;10.954;2022-10-16T06:49:13;98949.28;;;14.97;nan
63694;BME280;49839;51.798;10.954;2022-10-16T06:51:47;98959.44;;;15.03;nan
63694;BME280;49839;51.798;10.954;2022-10-16T06:54:15;98963.94;;;15.14;nan
63694;BME280;49839;51.798;10.954;2022-10-16T06:56:44;98973.00;;;15.23;nan
63694;BME280;49839;51.798;10.954;2022-10-16T06:59:12;98976.03;;;15.29;nan
63694;BME280;49839;51.798;10.954;2022-10-16T07:01:40;98972.78;;;15.37;nan
63694;BME280;49839;51.798;10.954;2022-10-16T07:04:09;98967.84;;;15.43;nan
63694;BME280;49839;51.798;10.954;2022-10-16T07:06:37;98976.19;;;15.50;nan
63694;BME280;49839;51.798;10.954;2022-10-16T07:09:09;98979.47;;;15.54;nan
63694;BME280;49839;51.798;10.954;2022-10-16T07:11:39;98984.53;;;15.57;nan
63694;BME280;49839;51.798;10.954;2022-10-16T07:14:10;98989.28;;;15.64;nan
63694;BME280;49839;51.798;10.954;2022-10-16T07:16:40;99000.63;;;15.66;nan
63694;BME280;49839;51.798;10.954;2022-10-16T07:19:09;99011.75;;;15.72;nan
63694;BME280;49839;51.798;10.954;2022-10-16T07:21:39;98998.47;;;15.72;nan
63694;BME280;49839;51.798;10.954;2022-10-16T07:24:11;98996.91;;;15.80;nan
63694;BME280;49839;51.798;10.954;2022-10-16T07:26:40;99007.41;;;15.82;nan
63694;BME280;49839;51.798;10.954;2022-10-16T07:29:12;99017.34;;;15.91;nan
63694;BME280;49839;51.798;10.954;2022-10-16T07:31:42;99021.19;;;15.98;nan
63694;BME280;49839;51.798;10.954;2022-10-16T07:34:13;99028.56;;;15.94;nan
63694;BME280;49839;51.798;10.954;2022-10-16T07:36:43;99025.69;;;15.97;nan
63694;BME280;49839;51.798;10.954;2022-10-16T07:39:14;99039.69;;;16.00;nan
63694;BME280;49839;51.798;10.954;2022-10-16T07:41:43;99040.53;;;16.00;nan
63694;BME280;49839;51.798;10.954;2022-10-16T07:44:11;99040.25;;;16.03;nan
63694;BME280;49839;51.798;10.954;2022-10-16T07:46:39;99048.97;;;16.05;nan
63694;BME280;49839;51.798;10.954;2022-10-16T07:49:08;99035.94;;;16.13;nan
63694;BME280;49839;51.798;10.954;2022-10-16T07:51:38;99036.41;;;16.18;nan
63694;BME280;49839;51.798;10.954;2022-10-16T07:54:08;99035.44;;;16.19;nan
63694;BME280;49839;51.798;10.954;2022-10-16T07:56:36;99039.66;;;16.22;nan
63694;BME280;49839;51.798;10.954;2022-10-16T07:59:08;99036.16;;;16.33;nan
63694;BME280;49839;51.798;10.954;2022-10-16T08:01:36;99041.59;;;16.42;nan
63694;BME280;49839;51.798;10.954;2022-10-16T08:04:05;99044.63;;;16.38;nan
63694;BME280;49839;51.798;10.954;2022-10-16T08:06:36;99033.00;;;16.39;nan
63694;BME280;49839;51.798;10.954;2022-10-16T08:09:08;99029.38;;;16.40;nan
63694;BME280;49839;51.798;10.954;2022-10-16T08:11:38;99019.00;;;16.37;nan
63694;BME280;49839;51.798;10.954;2022-10-16T08:14:08;99025.25;;;16.36;nan
63694;BME280;49839;51.798;10.954;2022-10-16T08:16:37;99035.19;;;16.34;nan
63694;BME280;49839;51.798;10.954;2022-10-16T08:19:05;99036.38;;;16.41;nan
63694;BME280;49839;51.798;10.954;2022-10-16T08:21:34;99033.50;;;16.44;nan
63694;BME280;49839;51.798;10.954;2022-10-16T08:24:06;99052.13;;;16.44;nan
63694;BME280;49839;51.798;10.954;2022-10-16T08:26:35;99060.69;;;16.47;nan
63694;BME280;49839;51.798;10.954;2022-10-16T08:29:03;99064.19;;;16.48;nan
63694;BME280;49839;51.798;10.954;2022-10-16T08:31:32;99054.91;;;16.42;nan
63694;BME280;49839;51.798;10.954;2022-10-16T08:34:01;99064.56;;;16.43;nan
63694;BME280;49839;51.798;10.954;2022-10-16T08:36:29;99074.25;;;16.44;nan
63694;BME280;49839;51.798;10.954;2022-10-16T08:38:58;99064.44;;;16.45;nan
63694;BME280;49839;51.798;10.954;2022-10-16T08:44:30;99071.09;;;16.50;nan
63694;BME280;49839;51.798;10.954;2022-10-16T08:47:10;99070.97;;;16.52;nan
63694;BME280;49839;51.798;10.954;2022-10-16T08:49:43;99076.63;;;16.47;nan
63694;BME280;49839;51.798;10.954;2022-10-16T08:52:16;99079.28;;;16.47;nan
63694;BME280;49839;51.798;10.954;2022-10-16T08:54:47;99088.38;;;16.56;nan
63694;BME280;49839;51.798;10.954;2022-10-16T08:57:22;99089.81;;;16.60;nan
63694;BME280;49839;51.798;10.954;2022-10-16T08:59:57;99084.63;;;16.59;nan
63694;BME280;49839;51.798;10.954;2022-10-16T09:02:32;99084.97;;;16.65;nan
63694;BME280;49839;51.798;10.954;2022-10-16T09:05:15;99086.81;;;16.76;nan
63694;BME280;49839;51.798;10.954;2022-10-16T09:07:57;99104.69;;;16.85;nan
63694;BME280;49839;51.798;10.954;2022-10-16T09:10:39;99110.13;;;16.84;nan
63694;BME280;49839;51.798;10.954;2022-10-16T09:13:19;99105.16;;;16.79;nan
63694;BME280;49839;51.798;10.954;2022-10-16T09:15:55;99111.59;;;16.88;nan
63694;BME280;49839;51.798;10.954;2022-10-16T09:18:30;99119.94;;;16.94;nan
63694;BME280;49839;51.798;10.954;2022-10-16T09:21:09;99121.97;;;17.02;nan
63694;BME280;49839;51.798;10.954;2022-10-16T09:23:38;99107.66;;;17.14;nan
63694;BME280;49839;51.798;10.954;2022-10-16T09:26:11;99112.47;;;17.20;nan
63694;BME280;49839;51.798;10.954;2022-10-16T09:28:41;99124.94;;;17.20;nan
63694;BME280;49839;51.798;10.954;2022-10-16T09:31:15;99115.91;;;17.32;nan
63694;BME280;49839;51.798;10.954;2022-10-16T09:33:55;99106.34;;;17.41;nan
63694;BME280;49839;51.798;10.954;2022-10-16T09:36:28;99113.09;;;17.45;nan
63694;BME280;49839;51.798;10.954;2022-10-16T09:39:05;99116.97;;;17.52;nan
63694;BME280;49839;51.798;10.954;2022-10-16T09:41:38;99106.38;;;17.62;nan
63694;BME280;49839;51.798;10.954;2022-10-16T09:44:19;99124.88;;;17.74;nan
63694;BME280;49839;51.798;10.954;2022-10-16T09:47:00;99126.97;;;17.92;nan
63694;BME280;49839;51.798;10.954;2022-10-16T09:49:29;99136.06;;;18.10;nan
63694;BME280;49839;51.798;10.954;2022-10-16T09:52:09;99143.56;;;18.26;nan
63694;BME280;49839;51.798;10.954;2022-10-16T09:54:49;99154.03;;;18.38;nan
63694;BME280;49839;51.798;10.954;2022-10-16T09:57:21;99138.63;;;18.21;nan
63694;BME280;49839;51.798;10.954;2022-10-16T09:59:54;99152.34;;;18.37;nan
63694;BME280;49839;51.798;10.954;2022-10-16T10:02:29;99149.75;;;18.78;nan
63694;BME280;49839;51.798;10.954;2022-10-16T10:05:03;99131.34;;;19.54;nan
63694;BME280;49839;51.798;10.954;2022-10-16T10:07:42;99137.59;;;20.30;nan
63694;BME280;49839;51.798;10.954;2022-10-16T10:10:20;99136.13;;;21.38;nan
63694;BME280;49839;51.798;10.954;2022-10-16T10:12:52;99128.44;;;21.96;nan
63694;BME280;49839;51.798;10.954;2022-10-16T10:15:27;99136.19;;;22.51;nan
63694;BME280;49839;51.798;10.954;2022-10-16T10:18:01;99147.31;;;22.56;nan
63694;BME280;49839;51.798;10.954;2022-10-16T10:20:33;99149.25;;;22.20;nan
63694;BME280;49839;51.798;10.954;2022-10-16T10:23:20;99147.94;;;21.80;nan
63694;BME280;49839;51.798;10.954;2022-10-16T10:25:52;99156.66;;;21.29;nan
63694;BME280;49839;51.798;10.954;2022-10-16T10:28:47;99163.13;;;20.99;nan
63694;BME280;49839;51.798;10.954;2022-10-16T10:31:28;99159.03;;;20.67;nan
63694;BME280;49839;51.798;10.954;2022-10-16T10:34:17;99170.88;;;20.18;nan
63694;BME280;49839;51.798;10.954;2022-10-16T10:36:50;99164.97;;;20.05;nan
63694;BME280;49839;51.798;10.954;2022-10-16T10:39:27;99162.59;;;19.63;nan
63694;BME280;49839;51.798;10.954;2022-10-16T10:42:09;99168.72;;;19.44;nan
63694;BME280;49839;51.798;10.954;2022-10-16T10:45:16;99169.69;;;19.24;nan
63694;BME280;49839;51.798;10.954;2022-10-16T10:48:14;99168.16;;;19.21;nan
63694;BME280;49839;51.798;10.954;2022-10-16T10:50:48;99180.16;;;18.96;nan
63694;BME280;49839;51.798;10.954;2022-10-16T10:53:36;99167.59;;;18.77;nan
63694;BME280;49839;51.798;10.954;2022-10-16T10:56:16;99180.94;;;18.77;nan
63694;BME280;49839;51.798;10.954;2022-10-16T10:59:16;99185.56;;;18.75;nan
63694;BME280;49839;51.798;10.954;2022-10-16T11:01:56;99181.31;;;18.73;nan
63694;BME280;49839;51.798;10.954;2022-10-16T11:04:48;99188.97;;;18.56;nan
63694;BME280;49839;51.798;10.954;2022-10-16T11:07:20;99180.38;;;18.53;nan
63694;BME280;49839;51.798;10.954;2022-10-16T11:09:53;99177.56;;;18.54;nan
63694;BME280;49839;51.798;10.954;2022-10-16T11:12:26;99185.38;;;18.67;nan
63694;BME280;49839;51.798;10.954;2022-10-16T11:15:02;99178.69;;;19.13;nan
63694;BME280;49839;51.798;10.954;2022-10-16T11:17:35;99186.22;;;19.58;nan
63694;BME280;49839;51.798;10.954;2022-10-16T11:20:15;99182.16;;;19.83;nan
63694;BME280;49839;51.798;10.954;2022-10-16T11:22:49;99177.50;;;20.04;nan
63694;BME280;49839;51.798;10.954;2022-10-16T11:25:22;99164.81;;;20.06;nan
63694;BME280;49839;51.798;10.954;2022-10-16T11:27:57;99168.09;;;19.90;nan
63694;BME280;49839;51.798;10.954;2022-10-16T11:30:28;99172.88;;;19.87;nan
63694;BME280;49839;51.798;10.954;2022-10-16T11:33:18;99171.34;;;19.84;nan
63694;BME280;49839;51.798;10.954;2022-10-16T11:36:00;99175.69;;;19.85;nan
63694;BME280;49839;51.798;10.954;2022-10-16T11:38:37;99167.50;;;19.77;nan
63694;BME280;49839;51.798;10.954;2022-10-16T11:41:23;99176.94;;;19.81;nan
63694;BME280;49839;51.798;10.954;2022-10-16T11:44:16;99176.94;;;19.81;nan
63694;BME280;49839;51.798;10.954;2022-10-16T11:46:51;99171.88;;;19.59;nan
63694;BME280;49839;51.798;10.954;2022-10-16T11:49:28;99182.81;;;19.46;nan
63694;BME280;49839;51.798;10.954;2022-10-16T11:52:06;99182.25;;;19.52;nan
63694;BME280;49839;51.798;10.954;2022-10-16T11:54:41;99181.41;;;19.52;nan
63694;BME280;49839;51.798;10.954;2022-10-16T11:57:17;99183.38;;;19.49;nan
63694;BME280;49839;51.798;10.954;2022-10-16T11:59:50;99188.44;;;19.53;nan
63694;BME280;49839;51.798;10.954;2022-10-16T12:02:30;99186.75;;;19.52;nan
63694;BME280;49839;51.798;10.954;2022-10-16T12:05:11;99184.63;;;19.55;nan
63694;BME280;49839;51.798;10.954;2022-10-16T12:07:49;99188.47;;;19.62;nan
63694;BME280;49839;51.798;10.954;2022-10-16T12:10:22;99198.00;;;19.55;nan
63694;BME280;49839;51.798;10.954;2022-10-16T12:12:53;99198.72;;;19.47;nan
63694;BME280;49839;51.798;10.954;2022-10-16T12:15:26;99186.59;;;19.43;nan
63694;BME280;49839;51.798;10.954;2022-10-16T12:18:22;99194.06;;;19.49;nan
63694;BME280;49839;51.798;10.954;2022-10-16T12:20:55;99196.91;;;19.58;nan
63694;BME280;49839;51.798;10.954;2022-10-16T12:23:27;99200.44;;;19.58;nan
63694;BME280;49839;51.798;10.954;2022-10-16T12:25:57;99200.75;;;19.65;nan
63694;BME280;49839;51.798;10.954;2022-10-16T12:28:27;99198.19;;;19.63;nan
63694;BME280;49839;51.798;10.954;2022-10-16T12:31:09;99199.16;;;19.62;nan
63694;BME280;49839;51.798;10.954;2022-10-16T12:33:40;99198.47;;;19.70;nan
63694;BME280;49839;51.798;10.954;2022-10-16T12:36:13;99208.59;;;19.66;nan
63694;BME280;49839;51.798;10.954;2022-10-16T12:38:49;99198.91;;;19.65;nan
63694;BME280;49839;51.798;10.954;2022-10-16T12:41:25;99208.47;;;19.68;nan
63694;BME280;49839;51.798;10.954;2022-10-16T12:43:55;99202.97;;;19.69;nan
63694;BME280;49839;51.798;10.954;2022-10-16T12:46:24;99210.88;;;19.71;nan
63694;BME280;49839;51.798;10.954;2022-10-16T12:49:21;99215.94;;;19.64;nan
63694;BME280;49839;51.798;10.954;2022-10-16T12:51:51;99210.28;;;19.67;nan
63694;BME280;49839;51.798;10.954;2022-10-16T12:54:25;99214.50;;;19.70;nan
63694;BME280;49839;51.798;10.954;2022-10-16T12:57:08;99220.28;;;19.75;nan
63694;BME280;49839;51.798;10.954;2022-10-16T12:59:44;99228.84;;;19.69;nan
63694;BME280;49839;51.798;10.954;2022-10-16T13:02:36;99221.41;;;19.63;nan
63694;BME280;49839;51.798;10.954;2022-10-16T13:05:21;99226.47;;;19.66;nan
63694;BME280;49839;51.798;10.954;2022-10-16T13:07:59;99221.91;;;19.57;nan
63694;BME280;49839;51.798;10.954;2022-10-16T13:10:45;99227.72;;;19.62;nan
63694;BME280;49839;51.798;10.954;2022-10-16T13:13:44;99219.84;;;19.60;nan
63694;BME280;49839;51.798;10.954;2022-10-16T13:16:22;99228.97;;;19.58;nan
63694;BME280;49839;51.798;10.954;2022-10-16T13:19:01;99222.97;;;19.65;nan
63694;BME280;49839;51.798;10.954;2022-10-16T13:21:41;99236.88;;;19.69;nan
63694;BME280;49839;51.798;10.954;2022-10-16T13:24:36;99239.56;;;19.59;nan
63694;BME280;49839;51.798;10.954;2022-10-16T13:27:15;99230.78;;;19.47;nan
63694;BME280;49839;51.798;10.954;2022-10-16T13:29:52;99245.94;;;19.37;nan
63694;BME280;49839;51.798;10.954;2022-10-16T13:32:22;99246.47;;;19.31;nan
63694;BME280;49839;51.798;10.954;2022-10-16T13:34:51;99250.13;;;19.30;nan
63694;BME280;49839;51.798;10.954;2022-10-16T13:37:22;99246.34;;;19.33;nan
63694;BME280;49839;51.798;10.954;2022-10-16T13:39:51;99253.81;;;19.39;nan
63694;BME280;49839;51.798;10.954;2022-10-16T13:42:32;99248.09;;;19.53;nan